createdAt,value
2017-09-29T00:00:24.634Z,17.70
2017-09-29T00:02:53.011Z,17.71
2017-09-29T00:05:21.367Z,17.50
2017-09-29T00:07:49.716Z,17.48
2017-09-29T00:10:18.060Z,17.55
2017-09-29T00:12:46.404Z,17.50
2017-09-29T00:15:14.800Z,17.53
2017-09-29T00:17:43.142Z,17.44
2017-09-29T00:20:11.487Z,17.37
2017-09-29T00:22:39.825Z,17.17
2017-09-29T00:25:08.204Z,17.24
2017-09-29T00:27:36.539Z,17.19
2017-09-29T00:30:04.895Z,17.15
2017-09-29T00:32:33.234Z,17.02
2017-09-29T00:35:01.593Z,16.96
2017-09-29T00:37:29.970Z,16.95
2017-09-29T00:39:58.325Z,16.92
2017-09-29T00:42:26.793Z,16.94
2017-09-29T00:44:55.152Z,16.96
2017-09-29T00:47:23.510Z,16.81
2017-09-29T00:49:51.895Z,16.86
2017-09-29T00:52:20.250Z,16.74
2017-09-29T00:54:48.598Z,16.67
2017-09-29T00:57:16.959Z,16.61
2017-09-29T00:59:45.347Z,16.50
2017-09-29T01:02:13.695Z,16.59
2017-09-29T01:04:42.050Z,16.46
2017-09-29T01:07:10.408Z,16.51
2017-09-29T01:09:38.755Z,16.19
2017-09-29T01:12:07.247Z,16.24
2017-09-29T01:14:36.699Z,16.14
2017-09-29T01:17:05.055Z,15.98
2017-09-29T01:19:33.434Z,15.79
2017-09-29T01:22:01.784Z,15.84
2017-09-29T01:24:30.139Z,15.82
2017-09-29T01:26:58.490Z,15.78
2017-09-29T01:29:26.875Z,15.65
2017-09-29T01:31:55.225Z,15.63
2017-09-29T01:34:23.580Z,15.71
2017-09-29T01:36:52.082Z,15.79
2017-09-29T01:39:20.415Z,15.65
2017-09-29T01:41:48.779Z,15.64
2017-09-29T01:44:17.138Z,15.65
2017-09-29T01:46:45.519Z,15.52
2017-09-29T01:49:13.898Z,15.41
2017-09-29T01:51:42.255Z,15.37
2017-09-29T01:54:10.632Z,15.42
2017-09-29T01:56:39.006Z,15.39
2017-09-29T01:59:07.362Z,15.34
2017-09-29T02:01:35.738Z,15.37
2017-09-29T02:04:04.210Z,15.25
2017-09-29T02:06:32.574Z,15.26
2017-09-29T02:09:00.932Z,15.19
2017-09-29T02:11:29.282Z,15.22
2017-09-29T02:13:57.639Z,15.17
2017-09-29T02:16:25.989Z,15.09
2017-09-29T02:18:54.344Z,15.08
2017-09-29T02:21:22.742Z,15.04
2017-09-29T02:23:51.098Z,15.01
2017-09-29T02:26:19.451Z,14.95
2017-09-29T02:28:47.799Z,14.94
2017-09-29T02:31:16.157Z,14.94
2017-09-29T02:33:44.539Z,14.94
2017-09-29T02:36:12.903Z,15.02
2017-09-29T02:38:41.289Z,14.87
2017-09-29T02:41:09.638Z,14.83
2017-09-29T02:43:38.036Z,14.79
2017-09-29T02:46:06.527Z,14.84
2017-09-29T02:48:34.902Z,14.93
2017-09-29T02:51:03.286Z,14.80
2017-09-29T02:53:31.663Z,14.84
2017-09-29T02:56:00.027Z,14.97
2017-09-29T02:58:31.397Z,15.02
2017-09-29T03:01:04.321Z,15.05
2017-09-29T03:03:34.631Z,14.96
2017-09-29T03:06:05.327Z,15.00
2017-09-29T03:08:33.838Z,14.88
2017-09-29T03:11:02.199Z,14.76
2017-09-29T03:13:30.551Z,14.75
2017-09-29T03:15:58.933Z,14.76
2017-09-29T03:18:27.291Z,14.84
2017-09-29T03:20:55.865Z,14.89
2017-09-29T03:23:24.248Z,14.84
2017-09-29T03:25:53.007Z,14.82
2017-09-29T03:28:21.403Z,14.70
2017-09-29T03:30:49.759Z,14.77
2017-09-29T03:33:18.110Z,14.75
2017-09-29T03:35:46.458Z,14.66
2017-09-29T03:38:14.843Z,14.67
2017-09-29T03:40:43.203Z,14.67
2017-09-29T03:43:11.559Z,14.67
2017-09-29T03:45:39.902Z,14.68
2017-09-29T03:48:08.279Z,14.72
2017-09-29T03:50:38.758Z,14.58
2017-09-29T03:53:09.023Z,14.65
2017-09-29T03:55:37.767Z,14.88
2017-09-29T03:58:07.740Z,14.88
2017-09-29T04:00:36.236Z,14.93
2017-09-29T04:03:04.587Z,15.17
2017-09-29T04:05:32.946Z,15.02
2017-09-29T04:08:01.328Z,15.04
2017-09-29T04:10:29.682Z,15.16
2017-09-29T04:12:58.062Z,15.01
2017-09-29T04:15:26.417Z,14.94
2017-09-29T04:17:54.789Z,15.18
2017-09-29T04:20:23.142Z,15.03
2017-09-29T04:22:51.494Z,15.10
2017-09-29T04:25:19.856Z,15.09
2017-09-29T04:27:48.236Z,15.12
2017-09-29T04:30:16.599Z,15.14
2017-09-29T04:32:44.962Z,15.20
2017-09-29T04:35:13.328Z,15.20
2017-09-29T04:37:41.682Z,15.27
2017-09-29T04:40:10.039Z,15.22
2017-09-29T04:42:38.467Z,15.05
2017-09-29T04:45:06.932Z,15.19
2017-09-29T04:47:35.308Z,15.23
2017-09-29T04:50:03.684Z,15.20
2017-09-29T04:52:32.356Z,15.28
2017-09-29T04:55:00.801Z,15.46
2017-09-29T04:57:29.181Z,15.43
2017-09-29T04:59:57.886Z,15.53
2017-09-29T05:02:26.234Z,15.52
2017-09-29T05:04:55.554Z,15.63
2017-09-29T05:07:23.912Z,15.46
2017-09-29T05:09:52.266Z,15.51
2017-09-29T05:12:20.659Z,15.63
2017-09-29T05:14:49.048Z,15.65
2017-09-29T05:17:17.384Z,15.56
2017-09-29T05:19:45.770Z,15.50
2017-09-29T05:22:14.122Z,15.41
2017-09-29T05:24:42.550Z,15.54
2017-09-29T05:27:10.908Z,15.54
2017-09-29T05:29:39.287Z,15.67
2017-09-29T05:32:07.640Z,15.67
2017-09-29T05:34:35.991Z,15.67
2017-09-29T05:37:04.346Z,15.66
2017-09-29T05:39:32.706Z,15.57
2017-09-29T05:42:01.391Z,15.64
2017-09-29T05:44:29.779Z,15.67
2017-09-29T05:46:58.134Z,15.94
2017-09-29T05:49:26.490Z,15.94
2017-09-29T05:51:54.878Z,16.16
2017-09-29T05:54:23.224Z,16.11
2017-09-29T05:56:51.635Z,16.13
2017-09-29T05:59:20.015Z,16.17
2017-09-29T06:01:48.379Z,16.25
2017-09-29T06:04:16.739Z,16.41
2017-09-29T06:06:45.115Z,16.52
2017-09-29T06:09:13.755Z,16.53
2017-09-29T06:11:42.106Z,16.64
2017-09-29T06:14:10.458Z,16.55
2017-09-29T06:16:38.838Z,16.59
2017-09-29T06:19:07.322Z,16.62
2017-09-29T06:21:36.073Z,16.68
2017-09-29T06:24:04.425Z,16.86
2017-09-29T06:26:32.787Z,16.87
2017-09-29T06:29:01.166Z,16.83
2017-09-29T06:31:29.547Z,16.87
2017-09-29T06:33:57.916Z,16.95
2017-09-29T06:36:26.267Z,17.04
2017-09-29T06:38:54.615Z,17.05
2017-09-29T06:41:22.962Z,17.04
2017-09-29T06:43:51.443Z,17.28
2017-09-29T06:46:19.792Z,17.36
2017-09-29T06:48:48.142Z,17.58
2017-09-29T06:51:16.495Z,17.60
2017-09-29T06:53:44.844Z,17.79
2017-09-29T06:56:13.291Z,17.70
2017-09-29T06:58:41.670Z,17.86
2017-09-29T07:01:10.013Z,17.85
2017-09-29T07:03:38.371Z,17.96
2017-09-29T07:06:06.707Z,17.89
2017-09-29T07:08:35.180Z,18.12
2017-09-29T07:11:03.544Z,18.32
2017-09-29T07:13:31.884Z,18.22
2017-09-29T07:16:00.218Z,18.00
2017-09-29T07:18:29.472Z,18.13
2017-09-29T07:20:57.853Z,17.98
2017-09-29T07:23:26.192Z,18.21
2017-09-29T07:25:55.020Z,17.85
2017-09-29T07:28:24.935Z,17.90
2017-09-29T07:30:56.550Z,17.78
2017-09-29T07:33:25.031Z,17.82
2017-09-29T07:35:53.366Z,18.06
2017-09-29T07:38:21.731Z,18.00
2017-09-29T07:40:50.086Z,18.20
2017-09-29T07:43:18.467Z,18.04
2017-09-29T07:45:46.850Z,18.01
2017-09-29T07:48:15.187Z,18.28
2017-09-29T07:50:43.530Z,18.34
2017-09-29T07:53:11.868Z,18.36
2017-09-29T07:55:40.206Z,18.39
2017-09-29T07:58:08.544Z,18.34
2017-09-29T08:00:36.882Z,18.41
2017-09-29T08:03:05.241Z,18.89
2017-09-29T08:05:33.571Z,18.57
2017-09-29T08:08:02.107Z,18.72
2017-09-29T08:10:30.454Z,18.65
2017-09-29T08:12:58.782Z,18.49
2017-09-29T08:15:27.160Z,18.66
2017-09-29T08:17:55.499Z,18.55
2017-09-29T08:20:23.827Z,18.80
2017-09-29T08:22:52.190Z,18.84
2017-09-29T08:25:20.734Z,19.09
2017-09-29T08:27:49.107Z,19.06
2017-09-29T08:30:17.571Z,19.19
2017-09-29T08:32:45.906Z,19.08
2017-09-29T08:35:14.244Z,19.28
2017-09-29T08:37:42.579Z,18.88
2017-09-29T08:40:10.912Z,19.05
2017-09-29T08:42:39.247Z,18.85
2017-09-29T08:45:07.594Z,18.80
2017-09-29T08:47:35.951Z,18.91
2017-09-29T08:50:04.316Z,18.88
2017-09-29T08:52:32.946Z,19.01
2017-09-29T08:55:01.279Z,18.89
2017-09-29T08:57:29.653Z,18.62
2017-09-29T08:59:58.003Z,18.34
2017-09-29T09:02:26.343Z,18.34
2017-09-29T09:04:54.803Z,18.29
2017-09-29T09:07:23.144Z,18.11
2017-09-29T09:09:51.478Z,17.89
2017-09-29T09:12:19.814Z,18.04
2017-09-29T09:14:48.183Z,18.16
2017-09-29T09:17:16.546Z,18.09
2017-09-29T09:19:44.879Z,18.05
2017-09-29T09:22:13.239Z,18.39
2017-09-29T09:24:41.607Z,18.61
2017-09-29T09:27:10.087Z,18.78
2017-09-29T09:29:38.415Z,18.99
2017-09-29T09:32:06.802Z,19.09
2017-09-29T09:34:35.400Z,19.24
2017-09-29T09:37:04.628Z,19.20
2017-09-29T09:39:33.381Z,19.44
2017-09-29T09:42:03.212Z,19.48
2017-09-29T09:44:32.741Z,19.52
2017-09-29T09:47:08.052Z,19.51
2017-09-29T09:49:37.946Z,19.27
2017-09-29T09:54:43.702Z,19.15
2017-09-29T09:57:12.218Z,18.86
2017-09-29T09:59:40.559Z,18.85
2017-09-29T10:02:08.893Z,18.99
2017-09-29T10:04:37.225Z,18.84
2017-09-29T10:07:05.558Z,18.73
2017-09-29T10:09:33.930Z,19.45
2017-09-29T10:12:02.267Z,20.63
2017-09-29T10:14:30.634Z,21.42
2017-09-29T10:16:58.974Z,22.99
2017-09-29T10:19:27.319Z,24.02
2017-09-29T10:21:55.654Z,24.21
2017-09-29T10:24:24.016Z,23.63
2017-09-29T10:26:52.647Z,24.25
2017-09-29T10:29:20.982Z,24.85
2017-09-29T10:31:49.344Z,25.57
2017-09-29T10:34:17.691Z,25.02
2017-09-29T10:36:46.023Z,25.66
2017-09-29T10:39:14.417Z,24.69
2017-09-29T10:41:42.750Z,24.69
2017-09-29T10:44:11.143Z,23.26
2017-09-29T10:46:39.474Z,22.94
2017-09-29T10:49:07.816Z,22.80
2017-09-29T10:51:36.207Z,21.88
2017-09-29T10:54:04.538Z,21.51
2017-09-29T10:56:33.002Z,21.26
2017-09-29T10:59:01.358Z,20.93
2017-09-29T11:01:30.189Z,20.71
2017-09-29T11:03:59.083Z,20.92
2017-09-29T11:06:27.418Z,21.02
2017-09-29T11:08:55.794Z,21.47
2017-09-29T11:11:24.444Z,21.21
2017-09-29T11:13:52.916Z,21.01
2017-09-29T11:16:21.260Z,21.04
2017-09-29T11:18:49.593Z,21.20
2017-09-29T11:21:17.927Z,21.47
2017-09-29T11:23:46.262Z,21.05
2017-09-29T11:26:14.597Z,21.07
2017-09-29T11:28:42.963Z,21.27
2017-09-29T11:31:11.300Z,22.22
2017-09-29T11:33:40.600Z,22.94
2017-09-29T11:36:08.963Z,23.28
2017-09-29T11:38:37.301Z,23.31
2017-09-29T11:41:05.644Z,23.30
2017-09-29T11:43:34.029Z,23.06
2017-09-29T11:46:03.062Z,23.31
2017-09-29T11:48:31.529Z,23.29
2017-09-29T11:50:59.978Z,23.21
2017-09-29T11:53:28.328Z,23.41
2017-09-29T11:55:57.853Z,22.99
2017-09-29T11:58:26.696Z,23.00
2017-09-29T12:00:59.602Z,23.29
2017-09-29T12:03:27.992Z,23.22
2017-09-29T12:05:56.335Z,23.19
2017-09-29T12:08:24.974Z,22.91
2017-09-29T12:10:53.314Z,22.88
2017-09-29T12:13:21.690Z,23.07
2017-09-29T12:15:50.023Z,23.03
2017-09-29T12:18:18.364Z,23.51
2017-09-29T12:20:46.726Z,23.21
2017-09-29T12:23:15.060Z,23.24
2017-09-29T12:25:43.399Z,23.38
2017-09-29T12:28:11.754Z,23.26
2017-09-29T12:30:44.740Z,22.14
2017-09-29T12:33:18.671Z,21.77
2017-09-29T12:35:47.036Z,21.59
2017-09-29T12:38:15.407Z,21.78
2017-09-29T12:40:43.747Z,21.88
2017-09-29T12:43:12.091Z,21.73
2017-09-29T12:45:40.435Z,21.76
2017-09-29T12:48:08.898Z,21.85
2017-09-29T12:50:37.247Z,21.83
2017-09-29T12:53:05.581Z,21.84
2017-09-29T12:55:33.939Z,21.69
2017-09-29T12:58:02.372Z,21.29
2017-09-29T13:00:30.751Z,21.36
2017-09-29T13:02:59.086Z,20.98
2017-09-29T13:05:27.423Z,21.12
2017-09-29T13:07:55.760Z,21.16
2017-09-29T13:10:24.230Z,21.34
2017-09-29T13:12:52.563Z,21.33
2017-09-29T13:15:20.905Z,20.73
2017-09-29T13:17:49.238Z,20.77
2017-09-29T13:20:17.607Z,20.83
2017-09-29T13:22:45.964Z,20.69
2017-09-29T13:25:14.298Z,20.92
2017-09-29T13:27:42.693Z,20.64
2017-09-29T13:30:11.034Z,20.65
2017-09-29T13:32:39.559Z,20.65
2017-09-29T13:35:08.028Z,21.05
2017-09-29T13:37:36.366Z,21.08
2017-09-29T13:40:04.694Z,20.90
2017-09-29T13:42:33.066Z,20.80
2017-09-29T13:45:01.410Z,20.68
2017-09-29T13:47:29.775Z,20.96
2017-09-29T13:49:58.413Z,21.04
2017-09-29T13:52:26.773Z,21.13
2017-09-29T13:54:55.165Z,20.89
2017-09-29T13:57:23.543Z,21.01
2017-09-29T13:59:52.421Z,21.22
2017-09-29T14:02:20.763Z,21.05
2017-09-29T14:04:49.135Z,20.76
2017-09-29T14:07:17.513Z,20.64
2017-09-29T14:09:45.874Z,20.94
2017-09-29T14:12:14.217Z,21.47
2017-09-29T14:14:42.599Z,21.05
2017-09-29T14:17:10.979Z,20.87
2017-09-29T14:19:40.167Z,21.34
2017-09-29T14:22:08.506Z,21.42
2017-09-29T14:24:36.849Z,21.67
2017-09-29T14:27:05.226Z,21.98
2017-09-29T14:29:33.578Z,21.35
2017-09-29T14:32:01.965Z,21.30
2017-09-29T14:34:30.347Z,21.50
2017-09-29T14:36:58.690Z,21.25
2017-09-29T14:39:27.295Z,21.53
2017-09-29T14:41:55.670Z,21.47
2017-09-29T14:44:24.011Z,21.38
2017-09-29T14:46:52.486Z,21.11
2017-09-29T14:49:20.830Z,21.12
2017-09-29T14:51:49.469Z,21.21
2017-09-29T14:54:30.401Z,21.20
2017-09-29T14:56:58.757Z,21.07
2017-09-29T14:59:27.147Z,21.03
2017-09-29T15:01:55.494Z,20.80
2017-09-29T15:04:23.844Z,20.45
2017-09-29T15:06:52.202Z,20.44
2017-09-29T15:09:20.553Z,20.36
2017-09-29T15:11:49.028Z,20.36
2017-09-29T15:14:17.375Z,20.53
2017-09-29T15:16:45.718Z,20.37
2017-09-29T15:19:14.071Z,20.58
2017-09-29T15:21:42.455Z,20.42
2017-09-29T15:24:10.834Z,20.23
2017-09-29T15:26:39.254Z,20.31
2017-09-29T15:29:07.602Z,20.18
2017-09-29T15:31:35.981Z,20.32
2017-09-29T15:34:04.361Z,20.21
2017-09-29T15:36:32.702Z,20.47
2017-09-29T15:39:01.060Z,20.58
2017-09-29T15:41:29.403Z,20.56
2017-09-29T15:43:57.779Z,20.49
2017-09-29T15:46:26.131Z,20.47
2017-09-29T15:48:54.478Z,20.47
2017-09-29T15:51:22.850Z,20.28
2017-09-29T15:53:51.196Z,20.41
2017-09-29T15:56:19.554Z,20.64
2017-09-29T15:58:48.792Z,20.45
2017-09-29T16:01:17.144Z,20.39
2017-09-29T16:03:45.523Z,20.35
2017-09-29T16:06:13.914Z,20.23
2017-09-29T16:08:42.273Z,20.00
2017-09-29T16:11:10.663Z,20.02
2017-09-29T16:13:39.020Z,19.63
2017-09-29T16:16:07.403Z,19.60
2017-09-29T16:18:36.423Z,19.53
2017-09-29T16:21:04.774Z,19.54
2017-09-29T16:23:33.154Z,19.16
2017-09-29T16:26:01.520Z,19.25
2017-09-29T16:28:29.898Z,19.29
2017-09-29T16:30:58.258Z,19.37
2017-09-29T16:33:26.634Z,19.31
2017-09-29T16:35:55.006Z,19.28
2017-09-29T16:38:23.352Z,19.36
2017-09-29T16:40:51.699Z,19.18
2017-09-29T16:43:20.046Z,19.25
2017-09-29T16:45:48.381Z,19.43
2017-09-29T16:48:16.739Z,19.22
2017-09-29T16:50:45.085Z,19.17
2017-09-29T16:53:13.555Z,19.34
2017-09-29T16:55:41.903Z,19.23
2017-09-29T16:58:10.250Z,19.18
2017-09-29T17:00:38.598Z,19.29
2017-09-29T17:03:06.946Z,19.38
2017-09-29T17:05:35.328Z,19.34
2017-09-29T17:08:03.669Z,19.41
2017-09-29T17:10:32.143Z,19.33
2017-09-29T17:13:00.499Z,19.10
2017-09-29T17:15:28.837Z,19.20
2017-09-29T17:17:57.190Z,19.13
2017-09-29T17:20:25.562Z,19.20
2017-09-29T17:22:53.919Z,19.27
2017-09-29T17:25:22.265Z,19.05
2017-09-29T17:27:50.634Z,19.03
2017-09-29T17:30:20.629Z,18.88
2017-09-29T17:32:48.970Z,19.09
2017-09-29T17:35:17.350Z,18.99
2017-09-29T17:37:45.781Z,19.13
2017-09-29T17:40:14.255Z,19.02
2017-09-29T17:42:42.600Z,18.98
2017-09-29T17:45:10.975Z,19.07
2017-09-29T17:47:39.359Z,19.01
2017-09-29T17:50:07.708Z,19.18
2017-09-29T17:52:36.088Z,18.92
2017-09-29T17:55:04.439Z,19.06
2017-09-29T17:57:32.813Z,19.01
2017-09-29T18:00:01.174Z,19.07
2017-09-29T18:02:29.638Z,19.19
2017-09-29T18:04:57.978Z,19.22
2017-09-29T18:07:26.336Z,19.10
2017-09-29T18:09:54.802Z,19.15
2017-09-29T18:12:23.151Z,19.06
2017-09-29T18:14:51.499Z,18.82
2017-09-29T18:17:19.904Z,19.10
2017-09-29T18:19:48.696Z,19.25
2017-09-29T18:22:17.078Z,18.87
2017-09-29T18:24:45.428Z,19.05
2017-09-29T18:27:13.833Z,19.10
2017-09-29T18:29:42.399Z,19.12
2017-09-29T18:32:10.901Z,18.98
2017-09-29T18:34:39.666Z,19.04
2017-09-29T18:37:08.461Z,19.01
2017-09-29T18:39:36.807Z,19.05
2017-09-29T18:42:06.064Z,19.20
2017-09-29T18:44:37.136Z,19.08
2017-09-29T18:47:22.288Z,19.13
2017-09-29T18:49:50.711Z,19.32
2017-09-29T18:52:19.213Z,19.32
2017-09-29T18:54:47.568Z,19.10
2017-09-29T18:57:15.927Z,19.20
2017-09-29T18:59:44.284Z,19.31
2017-09-29T19:02:12.667Z,19.18
2017-09-29T19:04:41.105Z,19.18
2017-09-29T19:07:09.500Z,19.29
2017-09-29T19:09:38.079Z,19.20
2017-09-29T19:12:06.728Z,19.30
2017-09-29T19:14:35.559Z,19.33
2017-09-29T19:17:04.196Z,19.41
2017-09-29T19:19:32.707Z,19.34
2017-09-29T19:22:02.966Z,19.31
2017-09-29T19:24:31.522Z,19.18
2017-09-29T19:27:00.134Z,19.44
2017-09-29T19:29:28.663Z,19.25
2017-09-29T19:31:57.059Z,19.13
2017-09-29T19:34:25.550Z,19.08
2017-09-29T19:36:54.081Z,19.27
2017-09-29T19:39:22.523Z,19.15
2017-09-29T19:41:50.871Z,19.08
2017-09-29T19:44:19.243Z,19.25
2017-09-29T19:46:47.590Z,18.98
2017-09-29T19:49:15.939Z,19.16
2017-09-29T19:51:44.594Z,18.87
2017-09-29T19:54:13.143Z,19.06
2017-09-29T19:56:41.492Z,18.90
2017-09-29T19:59:09.970Z,19.11
2017-09-29T20:01:38.324Z,18.91
2017-09-29T20:04:06.674Z,18.95
2017-09-29T20:06:35.064Z,18.88
2017-09-29T20:09:03.411Z,18.89
2017-09-29T20:11:31.933Z,19.02
2017-09-29T20:14:00.510Z,18.81
2017-09-29T20:16:28.856Z,19.02
2017-09-29T20:18:57.207Z,18.96
2017-09-29T20:21:25.574Z,19.01
2017-09-29T20:23:53.934Z,18.89
2017-09-29T20:26:22.287Z,19.01
2017-09-29T20:28:50.625Z,19.00
2017-09-29T20:31:18.974Z,18.95
2017-09-29T20:33:47.352Z,19.07
2017-09-29T20:36:15.694Z,19.00
2017-09-29T20:38:44.036Z,19.20
2017-09-29T20:41:12.507Z,19.07
2017-09-29T20:43:40.854Z,18.98
2017-09-29T20:46:09.203Z,19.10
2017-09-29T20:48:37.554Z,18.97
2017-09-29T20:51:05.898Z,19.13
2017-09-29T20:53:34.278Z,18.93
2017-09-29T20:56:02.658Z,19.03
2017-09-29T20:58:31.071Z,19.04
2017-09-29T21:00:59.409Z,19.01
2017-09-29T21:03:27.751Z,19.05
2017-09-29T21:05:56.127Z,18.87
2017-09-29T21:08:24.467Z,19.01
2017-09-29T21:10:52.843Z,19.02
2017-09-29T21:13:21.327Z,18.92
2017-09-29T21:15:49.665Z,18.92
2017-09-29T21:18:18.010Z,18.97
2017-09-29T21:20:46.368Z,18.91
2017-09-29T21:23:14.711Z,18.96
2017-09-29T21:25:43.083Z,19.00
2017-09-29T21:28:11.430Z,18.83
2017-09-29T21:30:39.781Z,19.01
2017-09-29T21:33:08.159Z,18.93
2017-09-29T21:35:36.518Z,18.88
2017-09-29T21:38:04.888Z,18.86
2017-09-29T21:40:33.230Z,18.79
2017-09-29T21:43:01.601Z,18.87
2017-09-29T21:45:29.946Z,18.83
2017-09-29T21:47:58.294Z,18.83
2017-09-29T21:50:26.674Z,18.93
2017-09-29T21:52:55.011Z,19.09
2017-09-29T21:55:23.500Z,18.96
2017-09-29T21:57:51.867Z,19.02
2017-09-29T22:00:20.235Z,19.03
2017-09-29T22:02:48.611Z,18.87
2017-09-29T22:05:20.805Z,18.96
2017-09-29T22:07:49.176Z,19.07
2017-09-29T22:10:17.553Z,19.06
2017-09-29T22:12:45.895Z,18.99
2017-09-29T22:15:14.266Z,18.96
2017-09-29T22:17:42.616Z,19.02
2017-09-29T22:20:10.991Z,18.94
2017-09-29T22:22:39.341Z,19.01
2017-09-29T22:25:07.695Z,19.01
2017-09-29T22:27:36.030Z,18.99
2017-09-29T22:30:04.673Z,18.87
2017-09-29T22:32:33.046Z,18.75
2017-09-29T22:35:01.400Z,18.81
2017-09-29T22:37:29.742Z,18.61
2017-09-29T22:39:58.109Z,18.70
2017-09-29T22:42:26.451Z,18.64
2017-09-29T22:44:54.799Z,18.78
2017-09-29T22:47:23.151Z,18.57
2017-09-29T22:49:51.528Z,18.68
2017-09-29T22:52:19.887Z,18.67
2017-09-29T22:54:48.258Z,18.83
2017-09-29T22:57:16.615Z,18.60
2017-09-29T22:59:44.959Z,18.69
2017-09-29T23:02:13.334Z,18.71
2017-09-29T23:04:41.683Z,18.75
2017-09-29T23:07:10.107Z,18.86
2017-09-29T23:09:38.442Z,18.94
2017-09-29T23:12:06.786Z,18.83
2017-09-29T23:14:35.140Z,18.78
2017-09-29T23:17:03.506Z,18.75
2017-09-29T23:19:31.871Z,18.91
2017-09-29T23:22:00.223Z,18.75
2017-09-29T23:24:28.601Z,18.70
2017-09-29T23:26:56.947Z,18.74
2017-09-29T23:29:25.330Z,18.87
2017-09-29T23:31:53.674Z,18.84
2017-09-29T23:34:22.018Z,18.95
2017-09-29T23:36:50.502Z,18.83
2017-09-29T23:39:18.851Z,18.89
2017-09-29T23:41:47.207Z,19.06
2017-09-29T23:44:15.559Z,18.96
2017-09-29T23:46:43.904Z,18.98
2017-09-29T23:49:12.285Z,18.79
2017-09-29T23:51:40.628Z,18.76
2017-09-29T23:54:09.012Z,18.47
2017-09-29T23:56:37.355Z,18.61
2017-09-29T23:59:05.750Z,18.57
